sensor_id;sensor_type;location;lat;lon;timestamp;pressure;altitude;pressure_sealevel;temperature;humidity
5703;BME280;2876;51.738;10.050;2022-08-11T00:04:35;100098.47;;;17.72;58.95
5703;BME280;2876;51.738;10.050;2022-08-11T00:10:38;100092.66;;;17.50;60.22
5703;BME280;2876;51.738;10.050;2022-08-11T00:16:42;100099.50;;;17.53;59.42
5703;BME280;2876;51.738;10.050;2022-08-11T00:22:46;100087.16;;;17.38;60.05
5703;BME280;2876;51.738;10.050;2022-08-11T00:28:49;100089.28;;;17.36;60.46
5703;BME280;2876;51.738;10.050;2022-08-11T00:34:53;100087.53;;;17.23;61.08
5703;BME280;2876;51.738;10.050;2022-08-11T00:42:22;100087.22;;;17.13;61.03
5703;BME280;2876;51.738;10.050;2022-08-11T01:01:19;100091.66;;;16.83;62.35
5703;BME280;2876;51.738;10.050;2022-08-11T01:41:31;100087.84;;;15.95;65.35
5703;BME280;2876;51.738;10.050;2022-08-11T01:48:16;100084.03;;;16.03;65.51
5703;BME280;2876;51.738;10.050;2022-08-11T01:54:35;100093.00;;;16.04;65.31
5703;BME280;2876;51.738;10.050;2022-08-11T02:01:09;100097.44;;;15.85;66.45
5703;BME280;2876;51.738;10.050;2022-08-11T02:07:38;100096.03;;;15.82;66.68
5703;BME280;2876;51.738;10.050;2022-08-11T02:14:12;100097.44;;;15.91;66.19
5703;BME280;2876;51.738;10.050;2022-08-11T02:20:54;100095.38;;;15.80;66.18
5703;BME280;2876;51.738;10.050;2022-08-11T02:27:24;100091.31;;;15.64;66.77
5703;BME280;2876;51.738;10.050;2022-08-11T02:33:29;100093.00;;;15.45;67.22
5703;BME280;2876;51.738;10.050;2022-08-11T02:58:54;100083.72;;;15.15;68.71
5703;BME280;2876;51.738;10.050;2022-08-11T03:05:52;100087.44;;;15.07;69.02
5703;BME280;2876;51.738;10.050;2022-08-11T03:18:48;100090.38;;;14.92;69.52
5703;BME280;2876;51.738;10.050;2022-08-11T03:25:14;100096.81;;;14.98;69.41
5703;BME280;2876;51.738;10.050;2022-08-11T03:31:48;100094.53;;;14.55;70.73
5703;BME280;2876;51.738;10.050;2022-08-11T03:38:00;100089.75;;;14.70;70.17
5703;BME280;2876;51.738;10.050;2022-08-11T03:51:05;100100.97;;;14.61;71.18
5703;BME280;2876;51.738;10.050;2022-08-11T04:38:37;100103.88;;;14.66;73.42
5703;BME280;2876;51.738;10.050;2022-08-11T05:12:51;100110.41;;;15.76;72.98
5703;BME280;2876;51.738;10.050;2022-08-11T05:18:54;100108.38;;;16.10;71.55
5703;BME280;2876;51.738;10.050;2022-08-11T05:25:31;100111.59;;;16.32;70.57
5703;BME280;2876;51.738;10.050;2022-08-11T05:32:18;100109.69;;;16.64;69.18
5703;BME280;2876;51.738;10.050;2022-08-11T05:38:42;100121.03;;;16.86;68.57
5703;BME280;2876;51.738;10.050;2022-08-11T05:45:15;100108.75;;;17.08;67.36
5703;BME280;2876;51.738;10.050;2022-08-11T05:51:56;100105.25;;;17.44;65.04
5703;BME280;2876;51.738;10.050;2022-08-11T05:58:17;100114.09;;;17.77;64.53
5703;BME280;2876;51.738;10.050;2022-08-11T06:04:23;100106.78;;;18.07;63.69
5703;BME280;2876;51.738;10.050;2022-08-11T06:10:36;100108.31;;;18.33;62.34
5703;BME280;2876;51.738;10.050;2022-08-11T06:16:40;100118.34;;;18.63;61.56
5703;BME280;2876;51.738;10.050;2022-08-11T06:22:45;100115.84;;;19.03;60.74
5703;BME280;2876;51.738;10.050;2022-08-11T06:28:58;100128.47;;;19.33;60.23
5703;BME280;2876;51.738;10.050;2022-08-11T06:35:37;100125.75;;;19.68;58.98
5703;BME280;2876;51.738;10.050;2022-08-11T06:42:06;100128.34;;;20.15;58.36
5703;BME280;2876;51.738;10.050;2022-08-11T06:48:17;100127.28;;;20.44;58.75
5703;BME280;2876;51.738;10.050;2022-08-11T06:54:21;100129.50;;;20.93;55.45
5703;BME280;2876;51.738;10.050;2022-08-11T07:00:25;100125.34;;;21.24;55.58
5703;BME280;2876;51.738;10.050;2022-08-11T07:07:06;100127.88;;;21.64;54.34
5703;BME280;2876;51.738;10.050;2022-08-11T07:13:33;100128.69;;;22.09;53.50
5703;BME280;2876;51.738;10.050;2022-08-11T07:19:58;100127.00;;;22.84;50.73
5703;BME280;2876;51.738;10.050;2022-08-11T07:26:23;100123.63;;;23.41;48.39
5703;BME280;2876;51.738;10.050;2022-08-11T07:32:55;100119.66;;;23.64;48.79
5703;BME280;2876;51.738;10.050;2022-08-11T07:38:59;100126.59;;;24.44;47.17
5703;BME280;2876;51.738;10.050;2022-08-11T07:45:05;100128.22;;;24.66;47.10
5703;BME280;2876;51.738;10.050;2022-08-11T07:51:27;100132.66;;;25.23;46.03
5703;BME280;2876;51.738;10.050;2022-08-11T07:57:48;100120.47;;;25.65;44.97
5703;BME280;2876;51.738;10.050;2022-08-11T08:04:20;100116.59;;;26.36;42.26
5703;BME280;2876;51.738;10.050;2022-08-11T08:10:47;100112.53;;;26.72;41.51
5703;BME280;2876;51.738;10.050;2022-08-11T08:17:08;100121.31;;;27.38;40.00
5703;BME280;2876;51.738;10.050;2022-08-11T08:23:29;100112.47;;;27.89;37.47
5703;BME280;2876;51.738;10.050;2022-08-11T08:29:37;100108.53;;;28.38;36.18
5703;BME280;2876;51.738;10.050;2022-08-11T08:36:01;100108.75;;;28.93;34.88
5703;BME280;2876;51.738;10.050;2022-08-11T08:42:27;100111.75;;;29.43;35.12
5703;BME280;2876;51.738;10.050;2022-08-11T08:48:31;100115.69;;;29.69;33.99
5703;BME280;2876;51.738;10.050;2022-08-11T08:54:38;100099.47;;;29.90;34.02
5703;BME280;2876;51.738;10.050;2022-08-11T09:00:45;100093.59;;;30.19;33.51
5703;BME280;2876;51.738;10.050;2022-08-11T09:06:48;100091.84;;;30.82;33.05
5703;BME280;2876;51.738;10.050;2022-08-11T09:12:53;100083.47;;;30.96;31.84
5703;BME280;2876;51.738;10.050;2022-08-11T09:18:56;100079.31;;;31.16;31.10
5703;BME280;2876;51.738;10.050;2022-08-11T09:25:01;100083.13;;;30.89;32.41
5703;BME280;2876;51.738;10.050;2022-08-11T09:31:22;100067.84;;;31.79;30.43
5703;BME280;2876;51.738;10.050;2022-08-11T09:37:24;100067.16;;;32.48;27.89
5703;BME280;2876;51.738;10.050;2022-08-11T09:43:57;100057.41;;;31.76;29.67
5703;BME280;2876;51.738;10.050;2022-08-11T09:50:20;100058.06;;;31.33;28.93
5703;BME280;2876;51.738;10.050;2022-08-11T09:56:23;100033.56;;;31.75;28.92
5703;BME280;2876;51.738;10.050;2022-08-11T10:02:47;100039.34;;;31.96;28.83
5703;BME280;2876;51.738;10.050;2022-08-11T10:08:51;100028.06;;;31.93;27.35
5703;BME280;2876;51.738;10.050;2022-08-11T10:15:18;100029.53;;;32.51;27.38
5703;BME280;2876;51.738;10.050;2022-08-11T10:21:44;100005.22;;;32.48;26.93
5703;BME280;2876;51.738;10.050;2022-08-11T10:28:08;100005.47;;;33.28;26.84
5703;BME280;2876;51.738;10.050;2022-08-11T10:34:31;100005.91;;;33.98;25.55
5703;BME280;2876;51.738;10.050;2022-08-11T10:40:38;99986.28;;;34.94;24.26
5703;BME280;2876;51.738;10.050;2022-08-11T10:46:41;99994.38;;;35.97;24.23
5703;BME280;2876;51.738;10.050;2022-08-11T10:53:02;99997.28;;;37.00;22.27
5703;BME280;2876;51.738;10.050;2022-08-11T10:59:26;99988.56;;;37.88;21.28
5703;BME280;2876;51.738;10.050;2022-08-11T11:05:30;99993.47;;;38.72;20.13
5703;BME280;2876;51.738;10.050;2022-08-11T11:11:37;99975.00;;;38.10;21.77
5703;BME280;2876;51.738;10.050;2022-08-11T11:24:49;99958.47;;;38.86;20.52
5703;BME280;2876;51.738;10.050;2022-08-11T11:31:10;99961.50;;;39.00;20.37
5703;BME280;2876;51.738;10.050;2022-08-11T11:37:16;99957.50;;;40.44;18.78
5703;BME280;2876;51.738;10.050;2022-08-11T11:43:19;99960.53;;;41.72;18.14
5703;BME280;2876;51.738;10.050;2022-08-11T11:49:27;99950.41;;;42.62;17.22
5703;BME280;2876;51.738;10.050;2022-08-11T11:55:30;99939.13;;;41.53;18.11
5703;BME280;2876;51.738;10.050;2022-08-11T12:01:32;99947.56;;;42.48;17.42
5703;BME280;2876;51.738;10.050;2022-08-11T12:07:36;99941.91;;;43.41;17.05
5703;BME280;2876;51.738;10.050;2022-08-11T12:14:18;99931.44;;;42.95;16.55
5703;BME280;2876;51.738;10.050;2022-08-11T12:20:21;99915.06;;;44.02;16.04
5703;BME280;2876;51.738;10.050;2022-08-11T12:26:35;99912.75;;;43.65;16.53
5703;BME280;2876;51.738;10.050;2022-08-11T12:33:18;99901.75;;;43.92;16.50
5703;BME280;2876;51.738;10.050;2022-08-11T12:39:32;99891.56;;;44.09;16.09
5703;BME280;2876;51.738;10.050;2022-08-11T12:46:34;99884.47;;;43.72;17.16
5703;BME280;2876;51.738;10.050;2022-08-11T12:52:46;99870.50;;;43.19;16.90
5703;BME280;2876;51.738;10.050;2022-08-11T12:58:51;99872.56;;;45.10;15.36
5703;BME280;2876;51.738;10.050;2022-08-11T13:04:54;99872.47;;;46.16;14.88
5703;BME280;2876;51.738;10.050;2022-08-11T13:11:01;99858.00;;;45.80;14.61
5703;BME280;2876;51.738;10.050;2022-08-11T13:17:22;99862.25;;;46.46;15.08
5703;BME280;2876;51.738;10.050;2022-08-11T13:23:47;99846.22;;;45.13;15.00
5703;BME280;2876;51.738;10.050;2022-08-11T13:30:04;99842.44;;;45.61;15.27
5703;BME280;2876;51.738;10.050;2022-08-11T13:36:41;99839.56;;;43.81;15.80
5703;BME280;2876;51.738;10.050;2022-08-11T13:42:44;99823.53;;;41.39;17.40
5703;BME280;2876;51.738;10.050;2022-08-11T13:48:48;99804.78;;;39.02;19.24
5703;BME280;2876;51.738;10.050;2022-08-11T13:55:01;99805.34;;;39.78;19.44
5703;BME280;2876;51.738;10.050;2022-08-11T14:01:06;99807.19;;;40.97;18.51
5703;BME280;2876;51.738;10.050;2022-08-11T14:07:37;99801.16;;;42.11;17.05
5703;BME280;2876;51.738;10.050;2022-08-11T14:13:42;99798.41;;;42.43;16.68
5703;BME280;2876;51.738;10.050;2022-08-11T14:19:51;99790.47;;;44.65;15.98
5703;BME280;2876;51.738;10.050;2022-08-11T14:25:55;99806.16;;;46.30;14.52
5703;BME280;2876;51.738;10.050;2022-08-11T14:32:19;99795.19;;;47.39;13.72
5703;BME280;2876;51.738;10.050;2022-08-11T14:38:23;99793.69;;;47.50;13.29
5703;BME280;2876;51.738;10.050;2022-08-11T14:44:25;99792.31;;;46.79;13.54
5703;BME280;2876;51.738;10.050;2022-08-11T14:50:47;99781.41;;;45.76;14.34
5703;BME280;2876;51.738;10.050;2022-08-11T14:56:49;99756.41;;;44.31;15.28
5703;BME280;2876;51.738;10.050;2022-08-11T15:02:52;99761.91;;;43.23;16.15
5703;BME280;2876;51.738;10.050;2022-08-11T15:09:14;99755.31;;;40.98;17.59
5703;BME280;2876;51.738;10.050;2022-08-11T15:15:19;99755.63;;;42.59;17.09
5703;BME280;2876;51.738;10.050;2022-08-11T15:21:39;99751.53;;;43.79;15.85
5703;BME280;2876;51.738;10.050;2022-08-11T15:28:02;99751.44;;;44.42;15.88
5703;BME280;2876;51.738;10.050;2022-08-11T15:34:26;99745.66;;;44.57;14.85
5703;BME280;2876;51.738;10.050;2022-08-11T15:40:48;99743.84;;;45.11;14.31
5703;BME280;2876;51.738;10.050;2022-08-11T15:47:12;99742.88;;;44.01;14.94
5703;BME280;2876;51.738;10.050;2022-08-11T15:53:41;99738.31;;;44.14;15.07
5703;BME280;2876;51.738;10.050;2022-08-11T15:59:44;99732.06;;;43.19;15.18
5703;BME280;2876;51.738;10.050;2022-08-11T16:06:25;99728.25;;;42.34;16.05
5703;BME280;2876;51.738;10.050;2022-08-11T16:13:02;99734.31;;;42.22;16.01
5703;BME280;2876;51.738;10.050;2022-08-11T16:19:07;99725.69;;;41.36;16.64
5703;BME280;2876;51.738;10.050;2022-08-11T16:25:18;99727.03;;;42.35;15.75
5703;BME280;2876;51.738;10.050;2022-08-11T16:31:43;99730.66;;;42.18;15.38
5703;BME280;2876;51.738;10.050;2022-08-11T16:38:06;99719.28;;;41.46;15.81
5703;BME280;2876;51.738;10.050;2022-08-11T16:44:27;99714.66;;;40.33;17.13
5703;BME280;2876;51.738;10.050;2022-08-11T16:50:49;99709.03;;;40.33;16.70
5703;BME280;2876;51.738;10.050;2022-08-11T16:56:52;99710.16;;;40.18;17.41
5703;BME280;2876;51.738;10.050;2022-08-11T17:02:55;99708.59;;;40.27;17.64
5703;BME280;2876;51.738;10.050;2022-08-11T17:09:22;99701.47;;;39.48;17.81
5703;BME280;2876;51.738;10.050;2022-08-11T17:15:47;99714.34;;;38.32;18.88
5703;BME280;2876;51.738;10.050;2022-08-11T17:22:09;99708.84;;;38.66;18.78
5703;BME280;2876;51.738;10.050;2022-08-11T17:28:30;99712.63;;;38.51;19.17
5703;BME280;2876;51.738;10.050;2022-08-11T17:34:35;99698.09;;;38.19;19.09
5703;BME280;2876;51.738;10.050;2022-08-11T17:41:00;99709.22;;;37.89;19.35
5703;BME280;2876;51.738;10.050;2022-08-11T17:47:25;99708.91;;;37.94;19.66
5703;BME280;2876;51.738;10.050;2022-08-11T17:53:47;99702.97;;;37.76;18.92
5703;BME280;2876;51.738;10.050;2022-08-11T18:00:26;99711.16;;;37.65;19.38
5703;BME280;2876;51.738;10.050;2022-08-11T18:06:30;99713.34;;;37.52;18.89
5703;BME280;2876;51.738;10.050;2022-08-11T18:12:35;99722.78;;;37.44;19.63
5703;BME280;2876;51.738;10.050;2022-08-11T18:18:56;99719.44;;;36.45;20.56
5703;BME280;2876;51.738;10.050;2022-08-11T18:25:26;99722.47;;;34.93;23.37
5703;BME280;2876;51.738;10.050;2022-08-11T18:31:49;99724.44;;;33.57;25.03
5703;BME280;2876;51.738;10.050;2022-08-11T18:38:22;99725.97;;;31.48;27.57
5703;BME280;2876;51.738;10.050;2022-08-11T18:44:48;99719.66;;;29.67;29.92
5703;BME280;2876;51.738;10.050;2022-08-11T18:51:11;99720.16;;;28.38;32.27
5703;BME280;2876;51.738;10.050;2022-08-11T18:57:39;99715.31;;;27.10;33.75
5703;BME280;2876;51.738;10.050;2022-08-11T19:04:02;99719.50;;;26.21;35.35
5703;BME280;2876;51.738;10.050;2022-08-11T19:10:30;99716.28;;;25.90;36.43
5703;BME280;2876;51.738;10.050;2022-08-11T19:16:52;99728.91;;;25.28;36.68
5703;BME280;2876;51.738;10.050;2022-08-11T19:23:37;99726.91;;;24.99;37.03
5703;BME280;2876;51.738;10.050;2022-08-11T19:30:01;99724.06;;;24.70;38.02
5703;BME280;2876;51.738;10.050;2022-08-11T19:36:23;99730.00;;;24.28;38.28
5703;BME280;2876;51.738;10.050;2022-08-11T19:42:46;99738.53;;;24.21;38.88
5703;BME280;2876;51.738;10.050;2022-08-11T19:49:26;99738.88;;;23.84;39.47
5703;BME280;2876;51.738;10.050;2022-08-11T19:55:50;99736.97;;;23.79;39.38
5703;BME280;2876;51.738;10.050;2022-08-11T20:02:11;99736.41;;;23.88;39.11
5703;BME280;2876;51.738;10.050;2022-08-11T20:08:34;99741.91;;;23.62;39.62
5703;BME280;2876;51.738;10.050;2022-08-11T20:15:00;99753.16;;;23.76;39.90
5703;BME280;2876;51.738;10.050;2022-08-11T20:21:22;99749.31;;;23.77;39.86
5703;BME280;2876;51.738;10.050;2022-08-11T20:27:44;99747.09;;;23.84;39.00
5703;BME280;2876;51.738;10.050;2022-08-11T20:34:07;99758.38;;;23.67;40.32
5703;BME280;2876;51.738;10.050;2022-08-11T20:40:30;99761.09;;;23.62;40.44
5703;BME280;2876;51.738;10.050;2022-08-11T20:46:51;99757.50;;;23.51;41.32
5703;BME280;2876;51.738;10.050;2022-08-11T20:53:17;99764.38;;;23.44;41.09
5703;BME280;2876;51.738;10.050;2022-08-11T20:59:41;99764.91;;;23.36;41.20
5703;BME280;2876;51.738;10.050;2022-08-11T21:06:05;99768.72;;;23.19;41.76
5703;BME280;2876;51.738;10.050;2022-08-11T21:12:34;99770.66;;;23.19;41.77
5703;BME280;2876;51.738;10.050;2022-08-11T21:19:11;99775.53;;;22.96;42.53
5703;BME280;2876;51.738;10.050;2022-08-11T21:26:22;99780.16;;;22.91;42.42
5703;BME280;2876;51.738;10.050;2022-08-11T21:32:44;99774.41;;;22.92;42.55
5703;BME280;2876;51.738;10.050;2022-08-11T21:39:06;99781.47;;;22.78;42.81
5703;BME280;2876;51.738;10.050;2022-08-11T21:45:28;99780.03;;;22.65;43.66
5703;BME280;2876;51.738;10.050;2022-08-11T21:51:50;99788.75;;;22.57;43.75
5703;BME280;2876;51.738;10.050;2022-08-11T21:58:11;99768.25;;;22.54;43.93
5703;BME280;2876;51.738;10.050;2022-08-11T22:04:35;99777.22;;;22.40;44.37
5703;BME280;2876;51.738;10.050;2022-08-11T22:10:56;99778.09;;;22.50;44.08
5703;BME280;2876;51.738;10.050;2022-08-11T22:17:33;99772.06;;;22.48;44.54
5703;BME280;2876;51.738;10.050;2022-08-11T22:24:00;99770.19;;;22.59;43.66
5703;BME280;2876;51.738;10.050;2022-08-11T22:30:31;99767.50;;;22.79;43.28
5703;BME280;2876;51.738;10.050;2022-08-11T22:36:52;99774.28;;;22.62;44.03
5703;BME280;2876;51.738;10.050;2022-08-11T22:43:28;99776.22;;;22.66;43.50
5703;BME280;2876;51.738;10.050;2022-08-11T22:49:56;99779.25;;;22.70;44.18
5703;BME280;2876;51.738;10.050;2022-08-11T22:56:18;99779.22;;;22.65;44.49
5703;BME280;2876;51.738;10.050;2022-08-11T23:02:39;99783.28;;;22.52;46.34
5703;BME280;2876;51.738;10.050;2022-08-11T23:09:02;99789.41;;;22.17;47.11
5703;BME280;2876;51.738;10.050;2022-08-11T23:15:23;99788.72;;;21.62;47.73
5703;BME280;2876;51.738;10.050;2022-08-11T23:21:46;99784.28;;;21.29;47.72
5703;BME280;2876;51.738;10.050;2022-08-11T23:28:09;99792.00;;;20.83;49.87
5703;BME280;2876;51.738;10.050;2022-08-11T23:34:40;99784.59;;;20.57;50.17
5703;BME280;2876;51.738;10.050;2022-08-11T23:41:06;99779.00;;;20.46;50.28
5703;BME280;2876;51.738;10.050;2022-08-11T23:47:29;99782.41;;;20.37;51.94
5703;BME280;2876;51.738;10.050;2022-08-11T23:53:51;99786.25;;;20.19;51.03
